Time;durP1;ratioP1;P1;durP2;ratioP2;P2;SDS_P1;SDS_P2;PMS_P1;PMS_P2;Temp;Humidity;BMP_temperature;BMP_pressure;BME280_temperature;BME280_humidity;BME280_pressure;Samples;Min_cycle;Max_cycle;Signal;HPM_P1;HPM_P2
2022/05/29 00:01:43;;;;;;;2.50;1.63;;;8.60;99.90;;;;;;5034760;28;20099;-37
2022/05/29 00:04:09;;;;;;;1.50;1.40;;;8.60;99.90;;;;;;5032146;28;20030;-36
2022/05/29 00:06:39;;;;;;;1.58;1.48;;;8.30;99.90;;;;;;5030737;28;20030;-36
2022/05/29 00:09:06;;;;;;;3.50;1.52;;;8.40;99.90;;;;;;5036134;28;20021;-37
2022/05/29 00:11:32;;;;;;;4.07;1.73;;;8.30;99.90;;;;;;5027746;28;20037;-37
2022/05/29 00:14:00;;;;;;;1.70;1.60;;;8.30;99.90;;;;;;5026954;28;20116;-36
2022/05/29 00:16:27;;;;;;;2.15;1.55;;;7.80;99.90;;;;;;5037189;28;20056;-36
2022/05/29 00:18:53;;;;;;;2.53;1.67;;;7.80;99.90;;;;;;5028124;28;20517;-36
2022/05/29 00:21:19;;;;;;;1.50;1.40;;;8.00;99.90;;;;;;5033960;28;20494;-37
2022/05/29 00:23:49;;;;;;;1.50;1.40;;;8.00;99.90;;;;;;5033099;28;20052;-36
2022/05/29 00:26:16;;;;;;;2.42;1.40;;;8.10;99.90;;;;;;5034363;28;20041;-37
2022/05/29 00:28:42;;;;;;;2.05;1.40;;;8.20;99.90;;;;;;5038698;28;20026;-37
2022/05/29 00:31:09;;;;;;;3.17;1.73;;;8.20;99.90;;;;;;5036116;28;20048;-37
2022/05/29 00:33:34;;;;;;;3.00;1.73;;;8.20;99.90;;;;;;5033897;28;20064;-36
2022/05/29 00:36:00;;;;;;;2.42;2.13;;;8.20;99.90;;;;;;5036619;28;20034;-36
2022/05/29 00:38:27;;;;;;;1.65;1.55;;;8.20;99.90;;;;;;5034587;28;21096;-37
2022/05/29 00:41:17;;;;;;;3.45;2.00;;;8.20;99.90;;;;;;5032848;28;20033;-37
2022/05/29 00:43:45;;;;;;;3.35;1.60;;;8.10;99.90;;;;;;5035156;28;20060;-36
2022/05/29 00:46:12;;;;;;;4.50;1.70;;;8.10;99.90;;;;;;5036750;28;20044;-36
2022/05/29 00:48:38;;;;;;;2.22;1.50;;;8.10;99.90;;;;;;5035186;28;20363;-36
2022/05/29 00:51:10;;;;;;;2.38;2.17;;;8.10;99.90;;;;;;5036379;28;20025;-36
2022/05/29 00:53:37;;;;;;;1.38;1.25;;;8.00;99.90;;;;;;5033086;28;20311;-38
2022/05/29 00:56:09;;;;;;;2.00;1.90;;;8.00;99.90;;;;;;5033294;28;20038;-38
2022/05/29 00:58:35;;;;;;;2.05;1.52;;;8.10;99.90;;;;;;5035998;28;20021;-38
2022/05/29 01:01:02;;;;;;;1.60;1.50;;;8.10;99.90;;;;;;5035731;28;20072;-39
2022/05/29 01:03:28;;;;;;;1.75;1.33;;;8.10;99.90;;;;;;5030899;28;20056;-36
2022/05/29 01:05:54;;;;;;;2.30;1.70;;;8.00;99.90;;;;;;5035533;28;20371;-37
2022/05/29 01:08:24;;;;;;;1.60;1.38;;;8.10;99.90;;;;;;5033927;28;20033;-38
2022/05/29 01:10:49;;;;;;;2.45;1.60;;;8.00;99.90;;;;;;5036113;28;20025;-36
2022/05/29 01:13:34;;;;;;;3.80;1.75;;;7.80;99.90;;;;;;5035300;28;20033;-36
2022/05/29 01:16:16;;;;;;;1.70;1.60;;;7.80;99.90;;;;;;5032336;28;20568;-39
2022/05/29 01:18:48;;;;;;;1.73;1.63;;;7.60;99.90;;;;;;5032451;28;20112;-36
2022/05/29 01:21:38;;;;;;;1.85;1.75;;;7.60;99.90;;;;;;5035076;28;20056;-36
2022/05/29 01:24:25;;;;;;;1.30;1.30;;;7.10;99.90;;;;;;5027181;28;20045;-39
2022/05/29 01:27:05;;;;;;;2.42;1.80;;;7.20;99.90;;;;;;5031132;28;20041;-36
2022/05/29 01:29:41;;;;;;;1.67;1.58;;;7.30;99.90;;;;;;5035005;28;20033;-36
2022/05/29 01:32:16;;;;;;;2.17;1.50;;;7.30;99.90;;;;;;5034149;28;20471;-37
2022/05/29 01:34:46;;;;;;;2.75;1.73;;;7.40;99.90;;;;;;5032489;28;20034;-37
2022/05/29 01:37:57;;;;;;;1.60;1.50;;;7.50;99.90;;;;;;5035568;28;20124;-39
2022/05/29 01:40:35;;;;;;;1.50;1.40;;;7.50;99.90;;;;;;5014161;28;20528;-38
2022/05/29 01:43:25;;;;;;;1.70;1.60;;;7.50;99.90;;;;;;5035665;28;20032;-36
2022/05/29 01:45:53;;;;;;;2.05;1.63;;;7.50;99.90;;;;;;5022064;28;20128;-36
2022/05/29 01:48:56;;;;;;;1.52;1.45;;;7.50;99.90;;;;;;5035441;28;20048;-37
2022/05/29 01:51:25;;;;;;;3.08;2.30;;;7.50;99.90;;;;;;5035996;28;20033;-36
2022/05/29 01:54:01;;;;;;;2.13;1.85;;;7.40;99.90;;;;;;5033204;28;20047;-37
2022/05/29 01:56:39;;;;;;;1.77;1.67;;;7.30;99.90;;;;;;5034070;28;20018;-37
2022/05/29 01:59:14;;;;;;;2.45;1.83;;;7.30;99.90;;;;;;5034033;28;20025;-36
2022/05/29 02:01:46;;;;;;;2.28;1.73;;;7.00;99.90;;;;;;5023055;28;20041;-37
2022/05/29 02:04:20;;;;;;;2.10;1.60;;;7.10;99.90;;;;;;5033684;28;20071;-37
2022/05/29 02:09:38;;;;;;;2.67;1.83;;;7.10;99.90;;;;;;5029704;28;20032;-37
2022/05/29 02:12:06;;;;;;;1.70;1.60;;;7.10;99.90;;;;;;5030448;28;20036;-40
2022/05/29 02:14:39;;;;;;;2.47;1.63;;;7.10;99.90;;;;;;5033869;28;20040;-36
2022/05/29 02:17:11;;;;;;;2.30;1.58;;;7.10;99.90;;;;;;5032499;28;20026;-37
2022/05/29 02:19:52;;;;;;;1.70;1.58;;;7.00;99.90;;;;;;5032703;28;20031;-36
2022/05/29 02:22:27;;;;;;;2.30;1.77;;;7.10;99.90;;;;;;5031843;28;20089;-36
2022/05/29 02:24:57;;;;;;;2.28;1.70;;;7.00;99.90;;;;;;5032971;28;20049;-36
2022/05/29 02:27:38;;;;;;;2.00;1.23;;;7.00;99.90;;;;;;5032994;28;20035;-37
2022/05/29 02:30:06;;;;;;;1.70;1.60;;;7.00;99.90;;;;;;5031701;28;20083;-37
2022/05/29 02:32:56;;;;;;;1.88;1.65;;;7.00;99.90;;;;;;5031562;28;20055;-37
2022/05/29 02:35:26;;;;;;;3.13;1.90;;;6.90;99.90;;;;;;5030822;28;20033;-36
2022/05/29 02:38:04;;;;;;;1.90;1.52;;;6.50;99.90;;;;;;5031792;28;20371;-35
2022/05/29 02:40:53;;;;;;;1.98;1.88;;;6.00;99.90;;;;;;5026690;28;20168;-36
2022/05/29 02:43:36;;;;;;;2.08;1.50;;;6.20;99.90;;;;;;5027841;28;20056;-37
2022/05/29 02:46:13;;;;;;;1.63;1.52;;;6.30;99.90;;;;;;5029842;28;20331;-36
2022/05/29 02:49:00;;;;;;;1.73;1.63;;;6.40;99.90;;;;;;5029959;28;20031;-36
2022/05/29 02:51:40;;;;;;;2.30;2.10;;;6.50;99.90;;;;;;5035403;28;20382;-36
2022/05/29 02:54:10;;;;;;;2.03;1.92;;;6.40;99.90;;;;;;5030812;28;20033;-36
2022/05/29 02:56:36;;;;;;;2.35;1.73;;;6.40;99.90;;;;;;5030621;28;20063;-36
2022/05/29 02:59:02;;;;;;;2.10;1.70;;;6.30;99.90;;;;;;5029292;28;20472;-35
2022/05/29 03:01:39;;;;;;;3.20;1.90;;;6.10;99.90;;;;;;5028384;28;20069;-37
2022/05/29 03:04:31;;;;;;;3.38;2.20;;;6.00;99.90;;;;;;5028988;28;20030;-35
2022/05/29 03:07:23;;;;;;;2.38;1.60;;;6.00;99.90;;;;;;5028084;28;20935;-35
2022/05/29 03:10:02;;;;;;;2.78;1.63;;;6.20;99.90;;;;;;5025462;28;20119;-35
2022/05/29 03:12:37;;;;;;;3.50;1.50;;;6.10;99.90;;;;;;5024833;28;20033;-37
2022/05/29 03:15:08;;;;;;;4.85;2.00;;;6.00;99.90;;;;;;5027777;28;20127;-36
2022/05/29 03:17:43;;;;;;;2.35;1.70;;;6.10;99.90;;;;;;5026803;28;20168;-36
2022/05/29 03:20:30;;;;;;;1.65;1.58;;;5.80;99.90;;;;;;5020624;28;21390;-36
2022/05/29 03:22:57;;;;;;;1.85;1.75;;;5.50;99.90;;;;;;5025747;28;20080;-35
2022/05/29 03:25:44;;;;;;;1.80;1.70;;;5.70;99.90;;;;;;5024359;28;20054;-36
2022/05/29 03:28:30;;;;;;;2.13;1.55;;;5.80;99.90;;;;;;5026548;28;20347;-35
2022/05/29 03:30:59;;;;;;;2.60;1.80;;;5.80;99.90;;;;;;5023333;28;20037;-36
2022/05/29 03:33:25;;;;;;;1.65;1.60;;;5.90;99.90;;;;;;5025107;28;20375;-36
2022/05/29 03:35:53;;;;;;;1.70;1.60;;;5.90;99.90;;;;;;5028475;28;20059;-36
2022/05/29 03:38:20;;;;;;;2.30;1.80;;;6.00;99.90;;;;;;5028772;28;20041;-37
2022/05/29 03:40:47;;;;;;;2.25;1.90;;;6.00;99.90;;;;;;5029505;28;20029;-35
2022/05/29 03:43:13;;;;;;;1.77;1.67;;;6.00;99.90;;;;;;5026562;28;20033;-37
2022/05/29 03:45:38;;;;;;;2.50;1.73;;;6.00;99.90;;;;;;5028229;28;20025;-35
2022/05/29 03:48:05;;;;;;;2.25;2.15;;;6.00;99.90;;;;;;5023975;28;20083;-36
2022/05/29 03:50:34;;;;;;;1.52;1.42;;;6.10;99.90;;;;;;5025370;28;20022;-37
2022/05/29 03:53:01;;;;;;;1.70;1.60;;;5.90;99.90;;;;;;5027156;28;20104;-39
2022/05/29 03:55:26;;;;;;;2.03;1.90;;;6.00;99.90;;;;;;5027159;28;20037;-35
2022/05/29 03:57:53;;;;;;;1.98;1.80;;;6.00;99.90;;;;;;5025047;28;20112;-39
2022/05/29 04:00:21;;;;;;;2.35;1.67;;;6.00;99.90;;;;;;5028271;28;20112;-36
2022/05/29 04:02:47;;;;;;;2.15;1.95;;;6.10;99.90;;;;;;5026102;28;20401;-35
2022/05/29 04:05:16;;;;;;;1.92;1.73;;;6.20;99.90;;;;;;5026721;28;20071;-36
2022/05/29 04:13:12;;;;;;;2.05;1.90;;;6.20;99.90;;;;;;5027967;28;20517;-36
2022/05/29 04:15:45;;;;;;;2.78;1.70;;;6.20;99.90;;;;;;5028475;28;20025;-38
2022/05/29 04:18:12;;;;;;;1.75;1.65;;;6.20;99.90;;;;;;5025078;28;20084;-39
2022/05/29 04:20:37;;;;;;;1.70;1.60;;;6.30;99.90;;;;;;5027375;28;20478;-36
2022/05/29 04:23:03;;;;;;;2.38;2.17;;;6.40;99.90;;;;;;5028583;28;20041;-35
2022/05/29 04:25:29;;;;;;;1.92;1.83;;;6.50;99.90;;;;;;5027118;28;20036;-35
2022/05/29 04:27:54;;;;;;;2.35;2.15;;;6.50;99.90;;;;;;5028994;28;20033;-36
2022/05/29 04:30:20;;;;;;;4.80;2.30;;;6.60;99.90;;;;;;5026810;28;20083;-36
2022/05/29 04:33:01;;;;;;;2.13;2.03;;;6.60;99.90;;;;;;5023522;28;20022;-36
2022/05/29 04:35:34;;;;;;;1.95;1.80;;;6.50;99.90;;;;;;5020710;28;20398;-36
2022/05/29 04:38:00;;;;;;;1.90;1.80;;;6.60;99.90;;;;;;5025566;28;20033;-36
2022/05/29 04:40:26;;;;;;;1.90;1.80;;;6.80;99.90;;;;;;5022380;28;20033;-35
2022/05/29 04:42:51;;;;;;;2.58;1.80;;;6.90;99.90;;;;;;5027988;28;20036;-36
2022/05/29 04:45:17;;;;;;;1.58;1.48;;;7.00;99.90;;;;;;5024250;28;20026;-36
2022/05/29 04:47:43;;;;;;;2.17;2.05;;;6.90;99.90;;;;;;5019851;28;20089;-37
2022/05/29 04:50:09;;;;;;;3.05;1.80;;;6.90;99.90;;;;;;5031024;28;20030;-35
2022/05/29 04:52:35;;;;;;;1.98;1.75;;;6.90;99.90;;;;;;5025291;28;20406;-39
2022/05/29 04:55:01;;;;;;;1.92;1.67;;;6.70;99.90;;;;;;5028190;28;20327;-36
2022/05/29 04:57:27;;;;;;;1.63;1.50;;;6.70;99.90;;;;;;5027091;28;20072;-36
2022/05/29 04:59:53;;;;;;;2.45;2.00;;;6.50;99.90;;;;;;5024746;28;20538;-39
2022/05/29 05:02:18;;;;;;;2.15;2.05;;;6.60;99.90;;;;;;5022677;28;20117;-38
2022/05/29 05:04:44;;;;;;;2.53;2.33;;;7.00;99.90;;;;;;5025877;28;20076;-36
2022/05/29 05:07:10;;;;;;;2.30;2.20;;;7.20;99.90;;;;;;5028267;28;20037;-35
2022/05/29 05:09:35;;;;;;;2.40;2.20;;;7.30;99.90;;;;;;5027386;28;20029;-35
2022/05/29 05:12:01;;;;;;;2.72;2.53;;;7.40;99.90;;;;;;5027774;28;20026;-37
2022/05/29 05:14:27;;;;;;;5.07;2.90;;;7.60;99.90;;;;;;5025817;28;20250;-35
2022/05/29 05:16:54;;;;;;;2.08;1.98;;;7.70;99.90;;;;;;5021366;28;20032;-36
2022/05/29 05:19:20;;;;;;;3.42;2.60;;;7.80;99.90;;;;;;5028340;28;20036;-36
2022/05/29 05:21:46;;;;;;;2.90;2.58;;;8.00;99.90;;;;;;5028251;28;20018;-37
2022/05/29 05:24:12;;;;;;;4.07;2.58;;;8.10;99.90;;;;;;5030081;28;20050;-37
2022/05/29 05:26:38;;;;;;;3.75;2.80;;;8.30;99.90;;;;;;5028693;28;20064;-35
2022/05/29 05:29:04;;;;;;;2.97;2.58;;;8.50;99.90;;;;;;5028581;28;20056;-35
2022/05/29 05:31:30;;;;;;;4.55;2.90;;;8.60;99.90;;;;;;5029585;28;20038;-35
2022/05/29 05:33:56;;;;;;;3.70;3.25;;;8.80;99.90;;;;;;5028522;28;20021;-37
2022/05/29 05:36:22;;;;;;;4.03;2.63;;;8.90;99.90;;;;;;5034020;28;20032;-35
2022/05/29 05:38:49;;;;;;;3.97;2.65;;;8.90;99.90;;;;;;5027937;28;20025;-36
2022/05/29 05:41:18;;;;;;;3.13;2.80;;;9.10;99.90;;;;;;5031151;28;20036;-37
2022/05/29 05:43:43;;;;;;;3.40;2.90;;;9.10;99.90;;;;;;5029126;28;20033;-36
2022/05/29 05:46:12;;;;;;;2.92;2.63;;;9.10;99.90;;;;;;5033711;28;20087;-36
2022/05/29 05:48:39;;;;;;;3.15;2.85;;;9.10;99.90;;;;;;5034798;28;20133;-37
2022/05/29 05:51:06;;;;;;;4.50;2.92;;;9.10;99.90;;;;;;5028328;28;20058;-37
2022/05/29 05:53:32;;;;;;;5.20;3.10;;;9.10;99.90;;;;;;5032977;28;20051;-37
2022/05/29 05:55:58;;;;;;;3.92;2.53;;;9.10;99.90;;;;;;5031365;28;20032;-35
2022/05/29 05:58:24;;;;;;;2.67;2.47;;;9.20;99.90;;;;;;5031059;28;20370;-37
2022/05/29 06:00:50;;;;;;;4.20;2.40;;;9.20;99.90;;;;;;5026089;28;20037;-37
2022/05/29 06:03:16;;;;;;;4.07;2.25;;;9.40;99.90;;;;;;5033805;28;20032;-37
2022/05/29 06:05:42;;;;;;;3.90;2.45;;;9.60;99.90;;;;;;5037587;28;20077;-35
2022/05/29 06:08:08;;;;;;;3.45;2.35;;;9.60;99.90;;;;;;5037064;28;20489;-36
2022/05/29 06:10:34;;;;;;;4.32;2.45;;;9.70;99.90;;;;;;5030912;28;20418;-38
2022/05/29 06:13:01;;;;;;;4.60;2.80;;;9.70;99.90;;;;;;5035084;28;20038;-36
2022/05/29 06:15:27;;;;;;;2.92;2.65;;;9.80;99.90;;;;;;5035497;28;20018;-36
2022/05/29 06:17:53;;;;;;;5.53;2.60;;;9.80;99.90;;;;;;5036950;28;20057;-36
2022/05/29 06:20:19;;;;;;;2.78;2.10;;;9.80;99.90;;;;;;5035382;28;20063;-38
2022/05/29 06:22:45;;;;;;;3.63;2.05;;;9.90;99.90;;;;;;5032742;28;20108;-36
2022/05/29 06:25:11;;;;;;;5.43;2.10;;;9.80;99.90;;;;;;5035859;28;20543;-36
2022/05/29 06:27:38;;;;;;;2.15;2.03;;;9.90;99.90;;;;;;5039360;28;20044;-39
2022/05/29 06:30:07;;;;;;;4.03;2.30;;;9.90;99.90;;;;;;5035023;28;20145;-39
2022/05/29 06:32:34;;;;;;;4.80;2.50;;;9.90;99.90;;;;;;5034702;28;20033;-36
2022/05/29 06:34:59;;;;;;;2.45;2.10;;;10.00;99.90;;;;;;5034968;28;20036;-36
2022/05/29 06:37:25;;;;;;;3.58;1.88;;;10.00;99.90;;;;;;5038461;28;20628;-37
2022/05/29 06:39:51;;;;;;;3.88;2.22;;;10.10;99.90;;;;;;5035885;28;20482;-35
2022/05/29 06:42:16;;;;;;;2.08;1.98;;;10.20;99.90;;;;;;5039827;28;20037;-36
2022/05/29 06:44:42;;;;;;;6.35;1.90;;;10.20;99.90;;;;;;5034369;28;20029;-38
2022/05/29 06:47:09;;;;;;;3.58;1.90;;;10.30;99.90;;;;;;5038494;28;20021;-36
2022/05/29 06:49:36;;;;;;;2.67;1.70;;;10.30;99.90;;;;;;5036315;28;20466;-37
2022/05/29 06:52:06;;;;;;;3.50;1.65;;;10.40;99.90;;;;;;5033679;28;20029;-39
2022/05/29 06:54:31;;;;;;;3.13;1.85;;;10.50;99.90;;;;;;5037942;28;20033;-36
2022/05/29 06:56:57;;;;;;;2.58;1.92;;;10.50;99.90;;;;;;5035842;28;20030;-36
2022/05/29 06:59:23;;;;;;;5.03;1.92;;;10.50;99.90;;;;;;5041900;28;20028;-38
2022/05/29 07:07:17;;;;;;;2.03;1.70;;;10.60;99.90;;;;;;5033376;28;20039;-35
2022/05/29 07:09:42;;;;;;;1.77;1.50;;;10.70;99.90;;;;;;5036274;28;20112;-37
2022/05/29 07:12:27;;;;;;;2.55;1.70;;;10.70;99.90;;;;;;5034273;28;20039;-38
2022/05/29 07:15:06;;;;;;;3.63;1.90;;;10.90;99.90;;;;;;5029400;28;20156;-37
2022/05/29 07:17:32;;;;;;;2.25;1.70;;;10.80;99.60;;;;;;5033541;28;20030;-36
2022/05/29 07:19:58;;;;;;;2.22;1.75;;;10.90;99.90;;;;;;5035832;28;20093;-39
2022/05/29 07:22:27;;;;;;;1.88;1.67;;;11.00;99.90;;;;;;5036139;28;20059;-38
2022/05/29 07:24:53;;;;;;;1.95;1.67;;;11.10;99.90;;;;;;5038349;28;20057;-35
2022/05/29 07:27:18;;;;;;;3.28;2.08;;;11.10;99.90;;;;;;5038256;28;20033;-37
2022/05/29 07:29:44;;;;;;;2.30;1.65;;;11.20;99.60;;;;;;5033405;28;20026;-38
2022/05/29 07:32:11;;;;;;;3.65;1.90;;;11.20;98.50;;;;;;5038252;28;20128;-38
2022/05/29 07:34:36;;;;;;;4.30;2.25;;;11.20;99.90;;;;;;5040408;28;20029;-35
2022/05/29 07:37:08;;;;;;;3.50;1.70;;;11.30;98.60;;;;;;5032487;28;20588;-37
2022/05/29 07:39:40;;;;;;;1.73;1.60;;;11.30;97.20;;;;;;5040349;28;20085;-36
2022/05/29 07:44:52;;;;;;;1.63;1.52;;;11.60;99.90;;;;;;5038431;28;20036;-38
2022/05/29 07:47:19;;;;;;;4.03;1.75;;;11.70;99.90;;;;;;5045040;28;20510;-35
2022/05/29 07:49:45;;;;;;;3.45;1.63;;;11.80;98.50;;;;;;5029578;28;20029;-36
2022/05/29 07:52:10;;;;;;;2.75;1.50;;;11.70;97.70;;;;;;5028550;28;20102;-37
2022/05/29 07:54:36;;;;;;;2.13;1.83;;;11.70;96.60;;;;;;5028575;28;20415;-36
2022/05/29 07:57:02;;;;;;;2.22;1.60;;;11.70;95.60;;;;;;5025357;28;20570;-36
2022/05/29 07:59:29;;;;;;;2.20;1.60;;;11.70;99.00;;;;;;5044829;28;20028;-39
2022/05/29 08:01:55;;;;;;;2.35;1.63;;;11.70;99.40;;;;;;5024192;28;20041;-35
2022/05/29 08:04:21;;;;;;;4.43;1.50;;;11.80;99.90;;;;;;5024912;28;20390;-39
2022/05/29 08:06:47;;;;;;;3.58;1.63;;;11.80;99.90;;;;;;5026170;28;20029;-36
2022/05/29 08:09:12;;;;;;;2.88;1.30;;;11.70;97.70;;;;;;5025337;28;20053;-35
2022/05/29 08:11:38;;;;;;;2.67;1.70;;;11.70;99.60;;;;;;5028183;28;20041;-36
2022/05/29 08:14:07;;;;;;;3.03;1.50;;;11.70;97.90;;;;;;5023444;28;20037;-37
2022/05/29 08:16:33;;;;;;;2.33;1.50;;;11.70;99.60;;;;;;5026259;28;20057;-35
2022/05/29 08:18:59;;;;;;;7.97;1.67;;;11.70;99.50;;;;;;5023209;28;20029;-37
2022/05/29 08:21:24;;;;;;;2.33;1.60;;;11.60;96.90;;;;;;5020562;28;20038;-37
2022/05/29 08:32:03;;;;;;;3.65;1.50;;;11.30;94.60;;;;;;5013799;28;20087;-37
2022/05/29 08:34:29;;;;;;;3.42;1.42;;;11.40;96.60;;;;;;5021871;28;20421;-35
2022/05/29 08:36:55;;;;;;;1.10;1.00;;;11.40;91.10;;;;;;5017046;28;20037;-35
2022/05/29 08:39:23;;;;;;;2.88;1.58;;;11.30;92.40;;;;;;5018461;28;20397;-35
2022/05/29 08:41:52;;;;;;;1.27;1.20;;;11.30;94.00;;;;;;5016025;28;20037;-38
2022/05/29 08:44:42;;;;;;;1.52;1.40;;;11.50;93.90;;;;;;5023358;28;20744;-36
2022/05/29 08:47:08;;;;;;;2.28;1.30;;;11.70;96.30;;;;;;5012403;28;20059;-35
2022/05/29 08:49:46;;;;;;;6.82;1.70;;;11.60;92.80;;;;;;5016066;28;21438;-37
2022/05/29 08:52:36;;;;;;;2.50;1.33;;;11.30;94.00;;;;;;5026132;28;20458;-36
2022/05/29 08:55:14;;;;;;;2.20;1.20;;;11.20;94.70;;;;;;5021776;28;20071;-35
2022/05/29 08:58:18;;;;;;;1.88;1.40;;;11.20;96.70;;;;;;5030210;28;20053;-35
2022/05/29 09:01:09;;;;;;;2.25;1.60;;;11.20;97.40;;;;;;5022952;28;20038;-36
2022/05/29 09:03:50;;;;;;;1.77;1.33;;;11.10;95.30;;;;;;5017807;28;20057;-35
2022/05/29 09:06:25;;;;;;;4.45;1.65;;;11.10;99.90;;;;;;5020676;28;20034;-35
2022/05/29 09:09:01;;;;;;;3.58;1.50;;;11.20;97.60;;;;;;5019970;28;20029;-38
2022/05/29 09:11:49;;;;;;;1.90;1.80;;;11.30;99.30;;;;;;5022491;28;20072;-39
2022/05/29 09:14:19;;;;;;;;;;;11.50;96.20;;;;;;5022539;28;20029;-36
2022/05/29 09:16:50;;;;;;;2.38;1.40;;;11.40;98.70;;;;;;5019398;28;19917;-36
2022/05/29 09:19:34;;;;;;;2.85;1.60;;;11.30;98.20;;;;;;5021392;28;20242;-38
2022/05/29 09:22:23;;;;;;;1.45;1.35;;;11.20;98.20;;;;;;5015376;28;20060;-36
2022/05/29 09:25:07;;;;;;;3.45;1.70;;;11.10;99.90;;;;;;5015628;28;20079;-35
2022/05/29 09:27:38;;;;;;;3.00;1.60;;;11.00;99.90;;;;;;5016457;28;20036;-36
2022/05/29 09:30:06;;;;;;;2.83;1.42;;;10.90;99.90;;;;;;5017025;28;20489;-37
2022/05/29 09:32:34;;;;;;;3.33;1.60;;;10.90;99.90;;;;;;5009459;28;20044;-36
2022/05/29 09:34:59;;;;;;;2.00;1.42;;;10.80;99.90;;;;;;5019846;28;20033;-35
2022/05/29 09:38:08;;;;;;;3.78;1.80;;;10.70;99.90;;;;;;5013140;28;20037;-35
2022/05/29 09:40:41;;;;;;;1.60;1.48;;;10.60;99.90;;;;;;5007310;28;20038;-36
2022/05/29 09:43:19;;;;;;;1.85;1.52;;;10.60;99.90;;;;;;5017917;28;20056;-38
2022/05/29 09:45:46;;;;;;;1.75;1.38;;;10.70;99.90;;;;;;5014641;28;20132;-35
2022/05/29 09:51:28;;;;;;;2.55;1.70;;;10.70;99.90;;;;;;5019215;28;21170;-37
2022/05/29 09:53:57;;;;;;;1.77;1.40;;;10.80;99.90;;;;;;5017757;28;20122;-35
2022/05/29 09:56:32;;;;;;;2.00;1.80;;;10.80;99.90;;;;;;5016671;28;20064;-35
2022/05/29 09:59:23;;;;;;;2.28;1.65;;;10.90;99.90;;;;;;5021775;28;20041;-36
2022/05/29 10:02:00;;;;;;;2.83;1.98;;;11.10;99.90;;;;;;5022088;28;20096;-35
2022/05/29 10:04:33;;;;;;;1.70;1.60;;;11.40;99.90;;;;;;5039556;28;20033;-37
2022/05/29 10:06:59;;;;;;;3.83;2.28;;;11.60;99.90;;;;;;5022491;28;20482;-34
2022/05/29 10:09:27;;;;;;;2.38;1.88;;;12.00;99.90;;;;;;5021881;28;20029;-36
2022/05/29 10:11:59;;;;;;;3.50;1.52;;;12.60;99.90;;;;;;5025806;28;20029;-37
2022/05/29 10:14:42;;;;;;;2.00;1.50;;;13.00;99.90;;;;;;5022589;28;20029;-35
2022/05/29 10:17:39;;;;;;;2.80;1.38;;;13.20;99.90;;;;;;5026281;28;20037;-35
2022/05/29 10:20:26;;;;;;;2.13;1.42;;;13.40;93.90;;;;;;5024561;28;20042;-36
2022/05/29 10:22:54;;;;;;;2.63;1.40;;;13.80;97.00;;;;;;5025626;28;20065;-37
2022/05/29 10:25:30;;;;;;;4.03;1.67;;;13.80;94.90;;;;;;5034601;28;20434;-35
2022/05/29 10:28:00;;;;;;;1.50;1.30;;;13.80;86.00;;;;;;5032822;28;20040;-40
2022/05/29 10:30:54;;;;;;;3.75;1.40;;;14.00;85.50;;;;;;5033320;28;20391;-37
2022/05/29 10:33:24;;;;;;;1.67;1.30;;;14.20;88.10;;;;;;5035608;28;20165;-39
2022/05/29 10:35:54;;;;;;;1.42;1.20;;;14.30;92.10;;;;;;5032303;28;20029;-37
2022/05/29 10:38:22;;;;;;;1.25;1.15;;;14.20;82.10;;;;;;5033487;28;20096;-37
2022/05/29 10:40:50;;;;;;;2.77;1.50;;;14.20;80.70;;;;;;5028638;28;20060;-37
2022/05/29 10:43:37;;;;;;;1.95;1.17;;;14.10;83.40;;;;;;5027846;28;20034;-38
2022/05/29 10:46:24;;;;;;;5.07;1.20;;;14.30;87.10;;;;;;5029075;28;20033;-37
2022/05/29 10:49:08;;;;;;;2.90;1.50;;;14.20;89.30;;;;;;5028762;28;20098;-37
2022/05/29 10:51:43;;;;;;;1.50;1.20;;;14.20;94.30;;;;;;5028295;28;20473;-36
2022/05/29 10:54:35;;;;;;;1.35;1.20;;;14.20;93.40;;;;;;5034040;28;20033;-39
2022/05/29 10:57:19;;;;;;;2.92;1.20;;;14.10;90.20;;;;;;5026686;28;20073;-39
2022/05/29 11:00:02;;;;;;;1.98;1.27;;;14.10;95.90;;;;;;5030012;28;20049;-36
2022/05/29 11:05:41;;;;;;;1.55;1.33;;;14.20;90.90;;;;;;5027759;28;20402;-36
2022/05/29 11:08:51;;;;;;;7.28;2.05;;;14.30;82.60;;;;;;5023449;28;20029;-38
2022/05/29 11:11:52;;;;;;;3.20;1.60;;;14.20;88.80;;;;;;5034785;28;20735;-35
2022/05/29 11:14:42;;;;;;;3.47;1.58;;;14.30;87.00;;;;;;5026479;28;20041;-40
2022/05/29 11:17:19;;;;;;;2.35;1.42;;;14.20;84.90;;;;;;5028444;28;20033;-37
2022/05/29 11:20:07;;;;;;;1.48;1.30;;;14.30;82.40;;;;;;5031950;28;20025;-37
2022/05/29 11:23:02;;;;;;;4.72;1.40;;;14.20;85.20;;;;;;5033170;28;20386;-38
2022/05/29 11:25:42;;;;;;;2.67;1.40;;;14.30;86.10;;;;;;5027593;28;20041;-37
2022/05/29 11:28:37;;;;;;;2.60;1.55;;;14.20;87.70;;;;;;5029249;28;20351;-36
2022/05/29 11:31:23;;;;;;;4.22;1.40;;;13.80;88.60;;;;;;5024576;28;20145;-36
2022/05/29 11:34:20;;;;;;;2.30;1.40;;;13.60;87.00;;;;;;5026396;28;20072;-37
2022/05/29 11:37:04;;;;;;;3.20;1.30;;;13.50;81.40;;;;;;5029432;28;20034;-36
2022/05/29 11:39:39;;;;;;;2.05;1.50;;;13.50;89.40;;;;;;5030470;28;20026;-37
2022/05/29 11:42:33;;;;;;;1.98;1.60;;;13.60;89.40;;;;;;5030087;28;20553;-40
2022/05/29 11:45:18;;;;;;;2.05;1.50;;;14.10;93.40;;;;;;5034493;28;20158;-37
2022/05/29 11:53:31;;;;;;;2.47;1.25;;;14.30;86.30;;;;;;5033458;28;19923;-37
2022/05/29 11:56:00;;;;;;;2.47;1.38;;;14.30;78.10;;;;;;5034656;28;20028;-37
2022/05/29 11:58:45;;;;;;;3.42;1.42;;;13.90;87.30;;;;;;5028906;28;20907;-36
2022/05/29 12:01:24;;;;;;;1.48;1.30;;;13.80;80.50;;;;;;5029323;28;20061;-39
2022/05/29 12:04:05;;;;;;;1.92;1.38;;;13.60;80.70;;;;;;5030321;28;20029;-37
2022/05/29 12:06:31;;;;;;;2.42;1.30;;;13.70;83.10;;;;;;5024785;28;20039;-37
2022/05/29 12:09:17;;;;;;;2.35;1.45;;;13.70;78.90;;;;;;5017161;28;20030;-39
2022/05/29 12:12:06;;;;;;;4.45;1.60;;;13.80;75.70;;;;;;5019885;28;20030;-39
2022/05/29 12:14:56;;;;;;;5.63;1.42;;;13.80;74.70;;;;;;5017028;28;20045;-40
2022/05/29 12:17:53;;;;;;;1.27;1.20;;;14.10;76.30;;;;;;5015084;28;20853;-37
2022/05/29 12:20:28;;;;;;;1.75;1.40;;;14.20;74.10;;;;;;5017550;28;20025;-37
2022/05/29 12:22:57;;;;;;;2.10;1.40;;;14.40;80.60;;;;;;5019920;28;20430;-40
2022/05/29 12:25:47;;;;;;;3.22;1.10;;;14.20;79.80;;;;;;5014168;28;20037;-37
2022/05/29 12:28:29;;;;;;;4.82;1.38;;;14.00;66.70;;;;;;5017295;28;20029;-39
2022/05/29 12:30:57;;;;;;;1.52;1.30;;;14.00;73.60;;;;;;5019039;28;20148;-40
2022/05/29 12:33:23;;;;;;;;;;;14.00;69.80;;;;;;5017403;28;20035;-38
2022/05/29 12:35:59;;;;;;;2.53;1.38;;;14.00;67.30;;;;;;5019136;28;19917;-39
2022/05/29 12:38:49;;;;;;;2.30;1.20;;;14.00;67.70;;;;;;5017035;28;20030;-39
2022/05/29 12:41:27;;;;;;;1.20;1.00;;;14.00;69.10;;;;;;5019215;28;20080;-40
2022/05/29 12:44:11;;;;;;;2.42;1.40;;;14.10;73.60;;;;;;5024335;28;20029;-40
2022/05/29 12:46:48;;;;;;;1.30;1.20;;;14.10;70.00;;;;;;5022325;28;20668;-37
2022/05/29 12:49:47;;;;;;;1.30;1.20;;;14.10;71.60;;;;;;5036089;28;20033;-36
2022/05/29 12:53:08;;;;;;;5.05;1.38;;;14.00;67.00;;;;;;5021773;28;20468;-40
2022/05/29 12:56:29;;;;;;;1.20;1.17;;;13.90;68.00;;;;;;4976048;28;20136;-38
2022/05/29 12:59:32;;;;;;;1.63;1.08;;;13.80;72.50;;;;;;4946860;28;20114;-38
2022/05/29 13:02:21;;;;;;;2.13;1.05;;;13.50;66.00;;;;;;5028760;28;20037;-37
2022/05/29 13:04:58;;;;;;;1.38;1.20;;;13.50;73.60;;;;;;5029183;28;20033;-39
2022/05/29 13:07:34;;;;;;;2.37;1.27;;;13.60;73.70;;;;;;5031430;28;20030;-35
2022/05/29 13:10:09;;;;;;;1.33;1.10;;;13.60;72.20;;;;;;5026272;28;20036;-36
2022/05/29 13:12:43;;;;;;;4.32;1.38;;;13.70;75.00;;;;;;5031675;28;20030;-35
2022/05/29 13:15:33;;;;;;;1.40;1.30;;;13.60;72.00;;;;;;5031589;28;20045;-36
2022/05/29 13:18:20;;;;;;;1.42;1.33;;;13.60;68.70;;;;;;5033016;28;20056;-35
2022/05/29 13:21:13;;;;;;;3.10;1.20;;;13.60;72.40;;;;;;5031595;28;20036;-38
2022/05/29 13:23:44;;;;;;;1.73;1.17;;;13.70;71.80;;;;;;5036816;28;20045;-37
2022/05/29 13:26:09;;;;;;;1.67;1.40;;;13.60;71.30;;;;;;5033364;28;20040;-38
2022/05/29 13:28:43;;;;;;;2.45;1.30;;;13.50;78.00;;;;;;5032045;28;20030;-35
2022/05/29 13:31:12;;;;;;;4.10;1.35;;;13.40;75.70;;;;;;5031766;28;20033;-38
2022/05/29 13:33:47;;;;;;;1.63;1.23;;;13.40;82.00;;;;;;5031204;28;20025;-36
2022/05/29 13:36:44;;;;;;;2.05;1.20;;;13.40;80.20;;;;;;5033910;28;20022;-35
2022/05/29 13:39:29;;;;;;;1.45;1.02;;;13.40;85.80;;;;;;5031733;28;20039;-36
2022/05/29 13:42:05;;;;;;;1.80;1.20;;;13.30;87.40;;;;;;5033388;28;20022;-39
2022/05/29 13:44:39;;;;;;;2.65;1.10;;;13.20;85.90;;;;;;5027954;28;20033;-36
2022/05/29 13:47:24;;;;;;;2.80;1.00;;;13.10;88.30;;;;;;5031390;28;20049;-36
2022/05/29 13:50:12;;;;;;;3.90;1.20;;;13.00;88.20;;;;;;5030406;28;20549;-35
2022/05/29 13:52:54;;;;;;;1.70;1.33;;;13.00;86.60;;;;;;5031203;28;20670;-37
2022/05/29 13:55:35;;;;;;;4.60;1.52;;;13.00;89.30;;;;;;5031734;28;20104;-38
2022/05/29 14:04:06;;;;;;;1.30;1.20;;;12.50;90.50;;;;;;5031488;28;20095;-39
2022/05/29 14:06:38;;;;;;;1.85;1.45;;;12.60;90.50;;;;;;5032697;28;20029;-35
2022/05/29 14:09:06;;;;;;;1.50;1.40;;;12.40;93.50;;;;;;5034229;28;21206;-35
2022/05/29 14:11:55;;;;;;;2.08;1.40;;;12.20;93.90;;;;;;5048786;28;20040;-36